Terminal Aerodrome Forecast
Issued by NWS Cleveland, OH

Home | Current Version | Previous Version | Graphics & Text | Print | Product List | Glossary On
Versions: 1 2 3 4 5 6 7 8 9 10 11 12 13 14 15 16 17 18 19 20 21 22 23 24 25 26 27 28 29 30 31 32 33
000
FTUS41 KCLE 031508 AAB
TAFCLE
TAF AMD
KCLE 031508Z 0315/0418 23004KT P6SM SCT250
     FM031800 33007KT P6SM SCT060
     FM032100 VRB04KT P6SM VCTS SCT060CB
     FM040400 VRB04KT P6SM SCT060
     FM041500 34005KT P6SM SCT060=

USA.gov is the U.S. government's official web portal to all federal, state and local government web resources and services.